Terminal Aerodrome Forecast
Issued by NWS

Home | Current Version | Previous Version | Graphics & Text | Print | Product List | Glossary On
Versions: 1 2 3 4 5 6 7 8 9 10 11 12 13 14 15 16 17 18 19 20
000
FTUS43 KICT 250522
TAFSLN
TAF
KSLN 250522Z 2506/2606 17014KT P6SM VCTS SCT020CB BKN090
      TEMPO 2506/2509 6SM -TSRA SCT020CB BKN035
     FM250900 27008KT P6SM SCT020 BKN035
     FM251600 34014KT P6SM SCT050 BKN100
     FM260100 06014G20KT P6SM SCT100=

USA.gov is the U.S. government's official web portal to all federal, state and local government web resources and services.